Time;durP1;ratioP1;P1;durP2;ratioP2;P2;SDS_P1;SDS_P2;PMS_P1;PMS_P2;Temp;Humidity;BMP_temperature;BMP_pressure;BME280_temperature;BME280_humidity;BME280_pressure;Samples;Min_cycle;Max_cycle;Signal;HPM_P1;HPM_P2
2023/01/16 00:01:02;;;;;;;24.73;15.45;;;;;;;5.37;100.00;100710.41;5050494;28;20547;-74
2023/01/16 00:03:28;;;;;;;26.08;16.08;;;;;;;5.30;100.00;100693.78;5050471;28;20037;-74
2023/01/16 00:05:54;;;;;;;23.70;15.93;;;;;;;5.16;100.00;100679.25;5034029;28;20021;-74
2023/01/16 00:08:20;;;;;;;22.95;15.15;;;;;;;4.55;100.00;100623.47;5050052;28;20037;-74
2023/01/16 00:10:45;;;;;;;23.70;16.17;;;;;;;4.96;100.00;100709.59;5050329;28;20135;-74
2023/01/16 00:13:12;;;;;;;24.25;16.60;;;;;;;5.11;100.00;100706.22;5050211;28;20041;-74
2023/01/16 00:15:37;;;;;;;29.52;16.70;;;;;;;5.11;100.00;100685.75;5050308;28;20599;-74
2023/01/16 00:18:04;;;;;;;26.08;16.15;;;;;;;5.26;100.00;100709.75;5033624;28;20041;-74
2023/01/16 00:20:30;;;;;;;24.42;15.40;;;;;;;5.35;100.00;100694.06;5050196;28;20037;-74
2023/01/16 00:22:55;;;;;;;27.17;16.98;;;;;;;5.21;100.00;100685.53;5050178;28;20032;-74
2023/01/16 00:25:21;;;;;;;24.73;16.48;;;;;;;5.30;100.00;100700.59;5050223;28;20041;-72
2023/01/16 00:27:46;;;;;;;25.58;16.73;;;;;;;5.26;100.00;100694.38;5050070;28;20033;-74
2023/01/16 00:30:12;;;;;;;25.90;17.02;;;;;;;5.04;100.00;100658.03;5036846;28;20037;-74
2023/01/16 00:32:37;;;;;;;25.35;17.02;;;;;;;5.31;100.00;100692.13;5032698;28;20040;-74
2023/01/16 00:35:03;;;;;;;25.77;16.23;;;;;;;5.30;100.00;100683.53;5032270;28;20495;-74
2023/01/16 00:37:29;;;;;;;27.08;18.27;;;;;;;5.36;100.00;100690.72;5033018;28;20037;-74
2023/01/16 00:39:54;;;;;;;25.40;16.02;;;;;;;5.44;100.00;100683.50;5032548;28;20029;-74
2023/01/16 00:42:19;;;;;;;26.42;17.05;;;;;;;5.46;100.00;100676.81;5032593;28;20033;-74
2023/01/16 00:44:45;;;;;;;22.95;16.00;;;;;;;5.40;100.00;100676.44;5032294;28;20111;-74
2023/01/16 00:47:10;;;;;;;25.23;16.73;;;;;;;5.00;100.00;100598.97;5032311;28;20030;-79
2023/01/16 00:49:36;;;;;;;28.05;17.33;;;;;;;5.50;100.00;100668.53;5032192;28;20037;-74
2023/01/16 00:52:02;;;;;;;22.95;15.45;;;;;;;5.40;100.00;100653.41;5029448;28;20045;-74
2023/01/16 00:54:27;;;;;;;25.13;16.33;;;;;;;5.52;100.00;100672.06;5029902;28;20116;-74
2023/01/16 00:56:53;;;;;;;25.35;16.98;;;;;;;5.35;100.00;100666.78;5029562;28;20096;-74
2023/01/16 00:59:18;;;;;;;28.83;17.58;;;;;;;5.15;100.00;100639.97;5029582;28;20063;-73
2023/01/16 01:01:43;;;;;;;28.38;17.58;;;;;;;5.32;100.00;100681.06;5029458;28;20044;-74
2023/01/16 01:04:09;;;;;;;29.45;17.90;;;;;;;5.34;100.00;100664.13;5029798;28;20116;-74
2023/01/16 01:06:34;;;;;;;27.33;18.02;;;;;;;5.29;100.00;100652.72;5029333;28;20072;-75
2023/01/16 01:09:00;;;;;;;28.70;19.35;;;;;;;5.35;100.00;100663.34;5029217;28;20195;-74
2023/01/16 01:11:25;;;;;;;28.23;17.98;;;;;;;5.24;100.00;100655.00;5029164;28;20477;-74
2023/01/16 01:13:51;;;;;;;30.17;17.80;;;;;;;4.79;100.00;100577.19;5029300;28;20606;-74
2023/01/16 01:16:16;;;;;;;27.88;18.90;;;;;;;5.23;100.00;100652.34;5029482;28;20033;-74
2023/01/16 01:18:42;;;;;;;28.10;18.85;;;;;;;5.29;100.00;100662.97;5029180;28;20045;-74
2023/01/16 01:21:09;;;;;;;26.52;17.42;;;;;;;5.30;100.00;100662.19;5029353;28;20036;-74
2023/01/16 01:23:34;;;;;;;26.27;18.23;;;;;;;5.19;100.00;100658.97;5030717;28;20029;-74
2023/01/16 01:26:09;;;;;;;26.17;17.10;;;;;;;5.11;100.00;100658.50;5031726;28;20045;-74
2023/01/16 01:28:34;;;;;;;26.20;17.52;;;;;;;5.04;100.00;100651.22;5031703;28;20471;-74
2023/01/16 01:31:05;;;;;;;25.80;16.60;;;;;;;4.51;100.00;100557.56;5031287;28;20163;-74
2023/01/16 01:33:30;;;;;;;26.38;16.55;;;;;;;5.09;100.00;100647.28;5031322;28;20512;-74
2023/01/16 01:35:56;;;;;;;25.77;15.93;;;;;;;4.90;100.00;100622.22;5031391;28;20033;-74
2023/01/16 01:38:21;;;;;;;24.15;15.88;;;;;;;4.94;100.00;100644.63;5031555;28;20033;-74
2023/01/16 01:40:47;;;;;;;24.75;16.83;;;;;;;4.89;100.00;100645.16;5031393;28;20029;-74
2023/01/16 01:43:13;;;;;;;28.55;17.65;;;;;;;4.58;100.00;100612.53;5031109;28;20021;-74
2023/01/16 01:45:40;;;;;;;26.20;16.80;;;;;;;4.75;100.00;100639.16;5031227;28;20026;-75
2023/01/16 01:48:12;;;;;;;26.38;16.98;;;;;;;4.78;100.00;100637.69;5030992;28;20598;-74
2023/01/16 01:50:59;;;;;;;26.40;17.02;;;;;;;4.82;100.00;100633.63;5030788;28;20407;-74
2023/01/16 01:53:35;;;;;;;23.48;15.65;;;;;;;4.90;100.00;100617.09;5031100;28;20029;-74
2023/01/16 01:56:15;;;;;;;26.73;16.75;;;;;;;4.95;100.00;100610.59;5030935;28;20025;-74
2023/01/16 01:58:41;;;;;;;28.13;16.27;;;;;;;4.56;100.00;100547.63;5030777;28;20104;-72
2023/01/16 02:01:07;;;;;;;26.90;16.02;;;;;;;4.50;100.00;100538.78;5030724;28;20088;-74
2023/01/16 02:03:42;;;;;;;23.42;16.15;;;;;;;4.87;100.00;100599.00;5030880;28;20496;-73
2023/01/16 02:06:19;;;;;;;26.08;16.02;;;;;;;4.73;100.00;100566.59;5030762;28;20063;-74
2023/01/16 02:08:45;;;;;;;25.63;16.52;;;;;;;4.75;100.00;100562.44;5030889;28;20222;-74
2023/01/16 02:11:57;;;;;;;26.13;17.40;;;;;;;5.02;100.00;100596.50;5030400;28;20025;-74
2023/01/16 02:14:26;;;;;;;26.35;16.73;;;;;;;5.05;100.00;100595.78;5007728;28;20507;-74
2023/01/16 02:20:06;;;;;;;23.70;15.27;;;;;;;4.96;100.00;100581.66;5008501;28;20539;-75
2023/01/16 02:22:56;;;;;;;25.20;15.80;;;;;;;5.01;100.00;100584.53;5008873;28;20464;-74
2023/01/16 02:26:02;;;;;;;24.88;16.88;;;;;;;5.10;100.00;100586.75;5008498;28;20042;-74
2023/01/16 02:28:46;;;;;;;24.02;15.43;;;;;;;5.15;100.00;100577.69;5008317;28;20061;-74
2023/01/16 02:31:33;;;;;;;23.98;16.48;;;;;;;5.16;100.00;100575.19;5008054;28;20049;-75
2023/01/16 02:34:20;;;;;;;25.60;16.35;;;;;;;5.18;100.00;100570.16;5008372;28;20038;-75
2023/01/16 02:37:05;;;;;;;26.85;16.52;;;;;;;5.25;100.00;100572.31;5008199;28;20029;-73
2023/01/16 02:39:43;;;;;;;24.67;15.85;;;;;;;5.31;100.00;100570.13;5007923;28;20526;-74
2023/01/16 02:42:22;;;;;;;24.20;16.95;;;;;;;5.25;100.00;100567.19;5008064;28;20049;-74
2023/01/16 02:44:52;;;;;;;26.13;17.70;;;;;;;5.19;100.00;100564.25;5007983;28;20100;-75
2023/01/16 02:47:31;;;;;;;28.23;18.40;;;;;;;5.29;100.00;100570.81;5008092;28;20088;-75
2023/01/16 02:50:26;;;;;;;27.80;17.45;;;;;;;5.33;100.00;100568.53;5005612;28;20149;-74
2023/01/16 02:52:54;;;;;;;30.33;18.20;;;;;;;5.33;100.00;100563.44;4988534;28;20041;-74
2023/01/16 02:55:23;;;;;;;34.10;18.73;;;;;;;5.29;100.00;100566.56;4988412;28;20404;-74
2023/01/16 02:57:54;;;;;;;28.73;18.58;;;;;;;5.29;100.00;100566.56;4988219;28;20122;-74
2023/01/16 03:00:21;;;;;;;30.50;18.10;;;;;;;5.24;100.00;100567.09;4988443;28;20480;-74
2023/01/16 03:02:46;;;;;;;27.80;17.33;;;;;;;4.65;100.00;100487.72;4988347;28;20034;-72
2023/01/16 03:05:12;;;;;;;29.55;17.67;;;;;;;5.22;100.00;100584.03;4988583;28;20093;-73
2023/01/16 03:08:08;;;;;;;27.90;17.38;;;;;;;5.13;100.00;100576.69;4988177;28;20145;-74
2023/01/16 03:10:42;;;;;;;24.90;16.35;;;;;;;5.19;100.00;100574.50;4988183;28;20062;-78
2023/01/16 03:13:33;;;;;;;26.33;16.70;;;;;;;5.21;100.00;100572.03;4988428;28;20149;-74
2023/01/16 03:16:07;;;;;;;25.77;15.30;;;;;;;5.26;100.00;100574.09;4977927;28;20503;-74
2023/01/16 03:18:55;;;;;;;26.60;16.63;;;;;;;5.17;100.00;100571.84;5010500;28;20033;-73
2023/01/16 03:21:30;;;;;;;26.27;16.10;;;;;;;5.22;100.00;100574.69;5010576;28;20030;-73
2023/01/16 03:24:10;;;;;;;28.65;17.23;;;;;;;5.11;100.00;100556.13;5010777;28;20040;-73
2023/01/16 03:26:43;;;;;;;;;;;;;;;5.22;100.00;100568.69;5013634;28;20030;-73
2023/01/16 03:29:32;;;;;;;24.52;15.60;;;;;;;5.21;100.00;100569.47;5014204;28;20315;-73
2023/01/16 03:32:20;;;;;;;24.40;16.90;;;;;;;5.22;100.00;100568.69;5027617;28;20044;-73
2023/01/16 03:34:57;;;;;;;25.02;16.70;;;;;;;5.28;100.00;100567.38;5013926;28;20045;-73
2023/01/16 03:37:36;;;;;;;25.30;16.45;;;;;;;5.18;100.00;100562.50;5013860;28;20407;-73
2023/01/16 03:40:05;;;;;;;25.38;17.60;;;;;;;5.14;100.00;100550.31;5013866;28;20471;-73
2023/01/16 03:42:47;;;;;;;27.42;18.08;;;;;;;5.25;100.00;100556.94;5029881;28;20021;-73
2023/01/16 03:45:33;;;;;;;23.90;16.25;;;;;;;5.26;100.00;100557.81;5033275;28;20045;-73
2023/01/16 03:48:11;;;;;;;26.92;16.90;;;;;;;5.20;100.00;100545.56;5033920;28;20041;-73
2023/01/16 03:50:38;;;;;;;26.10;16.00;;;;;;;5.21;100.00;100546.44;5033441;28;20431;-73
2023/01/16 03:53:11;;;;;;;30.17;17.60;;;;;;;5.14;100.00;100537.50;5033199;28;20029;-73
2023/01/16 03:55:56;;;;;;;25.90;15.82;;;;;;;4.98;100.00;100541.69;5033229;28;20025;-73
2023/01/16 03:58:30;;;;;;;26.88;15.35;;;;;;;4.65;100.00;100514.97;5033322;28;20025;-73
2023/01/16 04:01:33;;;;;;;27.65;17.77;;;;;;;4.64;100.00;100531.97;5033392;28;20037;-75
2023/01/16 04:04:04;;;;;;;29.98;19.08;;;;;;;4.79;100.00;100528.59;5033029;28;20116;-74
2023/01/16 04:06:52;;;;;;;29.27;18.02;;;;;;;5.00;100.00;100541.81;5012719;28;20487;-74
2023/01/16 04:09:56;;;;;;;29.58;19.17;;;;;;;5.00;100.00;100518.78;5048387;28;20049;-74
2023/01/16 04:12:25;;;;;;;28.80;17.65;;;;;;;5.08;100.00;100535.47;5050462;28;20037;-76
2023/01/16 04:14:56;;;;;;;28.30;17.88;;;;;;;5.12;100.00;100542.53;5050494;28;20051;-74
2023/01/16 04:17:23;;;;;;;27.27;17.90;;;;;;;5.13;100.00;100535.75;5050402;28;20064;-74
2023/01/16 04:19:48;;;;;;;26.60;17.17;;;;;;;5.17;100.00;100541.13;5050322;28;20033;-73
2023/01/16 04:22:26;;;;;;;30.10;18.90;;;;;;;5.17;100.00;100532.56;5050105;28;20415;-73
2023/01/16 04:24:53;;;;;;;25.73;16.80;;;;;;;5.11;100.00;100535.66;5050195;28;20040;-74
2023/01/16 04:27:19;;;;;;;25.42;16.20;;;;;;;5.07;100.00;100533.72;5050151;28;20483;-74
2023/01/16 04:29:45;;;;;;;25.50;16.17;;;;;;;4.95;100.00;100504.84;5049981;28;20052;-74
2023/01/16 04:32:11;;;;;;;29.63;18.40;;;;;;;4.96;100.00;100510.03;5050015;28;20037;-75
2023/01/16 04:34:36;;;;;;;26.33;17.25;;;;;;;5.00;100.00;100519.66;5050095;28;20218;-75
2023/01/16 04:37:02;;;;;;;25.45;17.02;;;;;;;4.94;100.00;100519.28;5049542;28;20028;-75
2023/01/16 04:39:27;;;;;;;27.75;17.08;;;;;;;4.78;100.00;100486.78;5046904;28;20041;-75
2023/01/16 04:41:52;;;;;;;28.10;18.52;;;;;;;4.83;100.00;100503.28;5032342;28;20029;-75
2023/01/16 04:44:18;;;;;;;29.60;18.00;;;;;;;4.50;100.00;100449.31;5032637;28;20033;-74
2023/01/16 04:46:43;;;;;;;31.10;17.75;;;;;;;5.04;100.00;100525.84;5019171;28;20496;-75
2023/01/16 04:49:09;;;;;;;30.73;18.48;;;;;;;5.02;100.00;100530.88;5012563;28;20377;-75
2023/01/16 04:51:36;;;;;;;29.05;18.35;;;;;;;4.98;100.00;100520.34;5027668;28;20139;-75
2023/01/16 04:54:03;;;;;;;30.77;18.02;;;;;;;4.88;100.00;100506.13;5032338;28;20033;-75
2023/01/16 04:56:29;;;;;;;30.50;17.50;;;;;;;4.85;100.00;100498.28;5032581;28;20434;-75
2023/01/16 04:58:54;;;;;;;25.60;17.23;;;;;;;4.77;100.00;100497.81;5032346;28;20033;-74
2023/01/16 05:01:20;;;;;;;26.10;16.63;;;;;;;4.69;100.00;100499.88;5031748;28;20049;-75
2023/01/16 05:03:45;;;;;;;29.63;17.85;;;;;;;4.81;100.00;100519.31;5031937;28;20071;-74
2023/01/16 05:06:11;;;;;;;28.45;18.88;;;;;;;4.79;100.00;100510.69;5031835;28;20025;-75
2023/01/16 05:08:36;;;;;;;34.03;19.38;;;;;;;4.63;100.00;100483.28;5031760;28;20467;-75
2023/01/16 05:11:02;;;;;;;34.45;19.95;;;;;;;4.11;100.00;100400.09;5031920;28;20502;-75
2023/01/16 05:13:29;;;;;;;34.83;22.42;;;;;;;4.74;100.00;100507.84;5032087;28;20036;-73
2023/01/16 05:15:54;;;;;;;29.92;20.25;;;;;;;4.28;100.00;100420.69;5025131;28;20029;-73
2023/01/16 05:18:20;;;;;;;31.23;19.05;;;;;;;4.53;100.00;100461.38;5014355;28;20124;-72
2023/01/16 05:20:45;;;;;;;29.58;17.42;;;;;;;4.73;100.00;100500.09;5013881;28;20117;-72
2023/01/16 05:23:10;;;;;;;25.80;17.08;;;;;;;4.72;100.00;100499.19;5012124;28;20931;-73
2023/01/16 05:25:37;;;;;;;26.80;17.27;;;;;;;4.44;100.00;100448.06;5011946;28;20037;-74
2023/01/16 05:28:03;;;;;;;28.02;17.08;;;;;;;3.93;100.00;100356.38;5012100;28;20451;-74
2023/01/16 05:30:28;;;;;;;27.27;17.65;;;;;;;4.74;100.00;100500.16;5011823;28;20052;-73
2023/01/16 05:32:54;;;;;;;33.70;16.70;;;;;;;4.88;100.00;100506.13;5011817;28;20404;-73
2023/01/16 05:35:19;;;;;;;28.52;16.27;;;;;;;4.62;100.00;100456.84;5011988;28;20369;-74
2023/01/16 05:37:45;;;;;;;27.33;15.00;;;;;;;4.95;100.00;100489.47;5011825;28;20504;-75
2023/01/16 05:40:12;;;;;;;25.73;15.88;;;;;;;5.09;100.00;100495.41;5011535;28;20034;-73
2023/01/16 05:42:38;;;;;;;23.88;16.27;;;;;;;5.15;100.00;100490.66;5012906;28;20504;-75
2023/01/16 05:45:04;;;;;;;25.33;15.68;;;;;;;5.22;100.00;100497.00;5011715;28;20084;-75
2023/01/16 05:47:29;;;;;;;22.92;15.85;;;;;;;5.21;100.00;100495.25;5011084;28;20022;-74
2023/01/16 05:49:58;;;;;;;21.98;14.35;;;;;;;5.12;100.00;100491.38;5011373;28;20026;-73
2023/01/16 05:52:27;;;;;;;23.48;14.95;;;;;;;5.09;100.00;100482.63;5011596;28;20041;-73
2023/01/16 05:54:53;;;;;;;27.85;15.75;;;;;;;5.13;100.00;100480.31;5011497;28;20041;-74
2023/01/16 05:57:20;;;;;;;24.73;15.75;;;;;;;4.76;100.00;100397.94;5011353;28;20061;-73
2023/01/16 05:59:51;;;;;;;23.42;15.57;;;;;;;5.19;100.00;100464.44;5011645;28;20090;-74
2023/01/16 06:02:18;;;;;;;21.35;15.07;;;;;;;5.29;100.00;100473.53;5010177;28;20382;-74
2023/01/16 06:04:44;;;;;;;22.92;15.15;;;;;;;5.34;100.00;100487.50;5011363;28;20026;-73
2023/01/16 06:07:10;;;;;;;22.88;15.73;;;;;;;5.30;100.00;100475.31;5011230;28;20564;-74
2023/01/16 06:09:36;;;;;;;22.67;15.00;;;;;;;5.37;100.00;100473.97;5011301;28;20523;-73
2023/01/16 06:12:01;;;;;;;27.17;15.27;;;;;;;5.25;100.00;100482.72;5011184;28;20065;-74
2023/01/16 06:14:27;;;;;;;25.38;15.02;;;;;;;5.25;100.00;100487.84;5011337;28;20104;-73
2023/01/16 06:16:52;;;;;;;26.88;16.88;;;;;;;5.22;100.00;100486.78;5011103;28;20029;-72
2023/01/16 06:19:17;;;;;;;26.05;17.08;;;;;;;5.17;100.00;100481.38;5016448;28;20049;-73
2023/01/16 06:21:43;;;;;;;27.48;15.82;;;;;;;5.16;100.00;100461.72;5030382;28;20388;-73
2023/01/16 06:24:08;;;;;;;29.25;16.58;;;;;;;5.28;100.00;100476.91;5030277;28;20029;-70
2023/01/16 06:26:34;;;;;;;27.52;16.23;;;;;;;5.26;100.00;100481.03;5019057;28;20041;-73
2023/01/16 06:28:59;;;;;;;27.95;16.58;;;;;;;5.33;100.00;100491.75;5009731;28;20029;-71
2023/01/16 06:31:25;;;;;;;25.83;16.73;;;;;;;5.19;100.00;100488.34;5009951;28;20480;-73
2023/01/16 06:33:50;;;;;;;29.25;18.90;;;;;;;5.13;100.00;100485.44;5026346;28;20400;-75
2023/01/16 06:36:15;;;;;;;26.48;18.23;;;;;;;5.08;100.00;100484.28;5010163;28;20106;-74
2023/01/16 06:38:41;;;;;;;30.80;18.10;;;;;;;5.07;100.00;100481.63;5009535;28;20484;-74
2023/01/16 06:41:06;;;;;;;26.40;16.13;;;;;;;5.11;100.00;100481.00;5013448;28;20024;-73
2023/01/16 06:43:32;;;;;;;23.27;16.23;;;;;;;5.15;100.00;100482.97;5030128;28;20021;-71
2023/01/16 06:45:57;;;;;;;28.33;18.05;;;;;;;5.19;100.00;100484.91;5029792;28;20017;-73
2023/01/16 06:48:23;;;;;;;28.95;17.63;;;;;;;5.08;100.00;100480.84;5029801;28;20032;-72
2023/01/16 06:50:49;;;;;;;26.83;17.08;;;;;;;5.08;100.00;100483.41;5015791;28;20025;-73
2023/01/16 06:53:15;;;;;;;29.17;16.60;;;;;;;5.12;100.00;100485.34;5009713;28;20025;-75
2023/01/16 06:55:41;;;;;;;31.30;18.77;;;;;;;4.80;100.00;100421.25;5009526;28;20511;-71
2023/01/16 06:58:08;;;;;;;29.08;17.92;;;;;;;5.08;100.00;100468.94;5010033;28;20025;-73
2023/01/16 07:00:34;;;;;;;33.15;21.67;;;;;;;5.08;100.00;100453.56;5012768;28;20022;-75
2023/01/16 07:03:00;;;;;;;29.35;18.90;;;;;;;5.18;100.00;100480.59;5013473;28;20036;-73
2023/01/16 07:05:28;;;;;;;31.08;19.55;;;;;;;5.18;100.00;100484.06;5013313;28;20022;-73
2023/01/16 07:07:54;;;;;;;28.45;18.45;;;;;;;4.21;100.00;100325.75;5012812;28;20503;-74
2023/01/16 07:10:20;;;;;;;26.85;18.15;;;;;;;5.16;100.00;100484.75;5013255;28;20050;-76
2023/01/16 07:12:46;;;;;;;25.48;17.83;;;;;;;5.21;100.00;100480.78;5013558;28;20041;-76
2023/01/16 07:23:28;;;;;;;25.02;15.73;;;;;;;5.25;100.00;100476.72;5031801;28;20049;-75
2023/01/16 07:25:56;;;;;;;27.88;16.90;;;;;;;5.24;100.00;100475.84;5033151;28;20099;-73
2023/01/16 07:28:22;;;;;;;32.20;20.63;;;;;;;4.98;100.00;100418.00;5026771;28;20029;-76
2023/01/16 07:30:48;;;;;;;29.55;19.48;;;;;;;5.32;100.00;100471.16;5030974;28;20407;-74
2023/01/16 07:33:14;;;;;;;26.92;17.00;;;;;;;5.33;100.00;100465.25;5028186;28;20041;-75
2023/01/16 07:35:40;;;;;;;25.55;17.20;;;;;;;5.27;100.00;100468.34;5013075;28;20048;-74
2023/01/16 07:38:05;;;;;;;27.48;18.08;;;;;;;5.18;100.00;100453.34;5016564;28;20034;-79
2023/01/16 07:40:31;;;;;;;25.33;17.25;;;;;;;4.89;100.00;100395.34;5022875;28;20042;-75
2023/01/16 07:42:56;;;;;;;26.65;17.83;;;;;;;4.67;100.00;100353.16;5033039;28;20423;-75
2023/01/16 07:45:22;;;;;;;28.02;17.98;;;;;;;5.30;100.00;100454.84;5033136;28;20075;-72
2023/01/16 07:47:47;;;;;;;27.60;18.52;;;;;;;5.31;100.00;100452.34;5033412;28;20393;-73
2023/01/16 07:50:12;;;;;;;26.15;18.80;;;;;;;5.32;100.00;100446.44;5019945;28;20030;-73
2023/01/16 07:52:38;;;;;;;28.95;17.70;;;;;;;5.13;100.00;100408.66;5028557;28;20040;-73
2023/01/16 07:55:04;;;;;;;23.65;16.15;;;;;;;5.22;100.00;100440.69;5032595;28;20033;-73
2023/01/16 07:57:29;;;;;;;28.13;17.23;;;;;;;4.61;100.00;100347.69;5032425;28;20053;-74
2023/01/16 07:59:55;;;;;;;27.50;18.23;;;;;;;4.35;100.00;100284.81;5033041;28;20091;-73
2023/01/16 08:02:20;;;;;;;29.50;19.90;;;;;;;5.15;100.00;100399.41;5032534;28;20134;-71
2023/01/16 08:04:46;;;;;;;29.73;19.38;;;;;;;5.32;100.00;100422.50;5033097;28;20095;-75
2023/01/16 08:07:11;;;;;;;29.33;20.83;;;;;;;5.37;100.00;100427.91;5032999;28;20480;-73
2023/01/16 08:09:37;;;;;;;22.33;15.20;;;;;;;5.28;100.00;100411.25;5032449;28;20111;-73
2023/01/16 08:12:03;;;;;;;22.65;14.43;;;;;;;5.02;100.00;100373.88;5030733;28;20042;-72
2023/01/16 08:14:28;;;;;;;20.55;13.30;;;;;;;5.12;100.00;100382.97;5031548;28;20057;-74
2023/01/16 08:16:53;;;;;;;18.10;11.48;;;;;;;4.85;100.00;100325.19;5032527;28;20030;-72
2023/01/16 08:19:19;;;;;;;18.10;11.38;;;;;;;5.25;100.00;100403.38;5032818;28;20040;-73
2023/01/16 08:21:44;;;;;;;17.40;11.20;;;;;;;5.07;100.00;100369.03;5032525;28;20026;-74
2023/01/16 08:24:12;;;;;;;18.60;12.07;;;;;;;4.59;100.00;100280.22;5026663;28;20541;-74
2023/01/16 08:26:38;;;;;;;19.17;11.30;;;;;;;5.24;100.00;100382.81;5031977;28;20036;-75
2023/01/16 08:29:04;;;;;;;21.20;11.80;;;;;;;5.33;100.00;100371.44;5032110;28;20029;-73
2023/01/16 08:31:30;;;;;;;18.35;12.13;;;;;;;5.38;100.00;100346.06;5032247;28;20026;-75
2023/01/16 08:33:55;;;;;;;18.83;12.50;;;;;;;5.61;100.00;100365.28;5032407;28;20028;-73
2023/01/16 08:36:21;;;;;;;19.70;13.75;;;;;;;5.61;100.00;100360.16;5031901;28;20476;-74
2023/01/16 08:38:49;;;;;;;20.92;13.95;;;;;;;5.78;100.00;100367.88;5016365;28;20068;-73
2023/01/16 08:52:21;;;;;;;17.27;11.95;;;;;;;6.06;100.00;100339.53;5009145;28;20092;-75
2023/01/16 08:54:46;;;;;;;16.42;11.23;;;;;;;6.13;100.00;100357.00;5009106;28;20026;-73
2023/01/16 08:57:11;;;;;;;15.57;11.45;;;;;;;6.14;100.00;100353.63;5008875;28;20046;-75
2023/01/16 08:59:37;;;;;;;15.35;9.85;;;;;;;5.95;100.00;100328.66;5008815;28;20032;-76
2023/01/16 09:02:05;;;;;;;13.90;9.05;;;;;;;6.10;100.00;100341.44;5010331;28;20049;-75
2023/01/16 09:04:31;;;;;;;18.23;10.68;;;;;;;6.15;100.00;100339.13;5029068;28;20025;-74
2023/01/16 09:06:56;;;;;;;15.98;9.60;;;;;;;5.65;100.00;100238.28;5029019;28;20049;-74
2023/01/16 09:09:22;;;;;;;14.45;10.05;;;;;;;6.16;100.00;100325.50;5017626;28;20049;-73
2023/01/16 09:14:38;;;;;;;16.05;10.23;;;;;;;6.17;100.00;100301.66;5031447;28;20091;-72
2023/01/16 09:17:04;;;;;;;16.63;11.57;;;;;;;6.37;100.00;100317.16;5029961;28;20029;-72
2023/01/16 09:19:30;;;;;;;15.35;11.75;;;;;;;6.57;100.00;100313.06;5031194;28;20478;-73
2023/01/16 09:21:55;;;;;;;17.08;10.98;;;;;;;6.61;100.00;100310.72;5030933;28;20021;-74
2023/01/16 09:24:20;;;;;;;15.43;10.35;;;;;;;6.62;100.00;100309.03;5030634;28;20033;-72
2023/01/16 09:26:46;;;;;;;14.23;9.40;;;;;;;6.53;100.00;100295.75;5030470;28;20124;-75
2023/01/16 09:29:11;;;;;;;14.43;9.02;;;;;;;6.51;100.00;100303.38;5031097;28;20029;-77
2023/01/16 09:31:37;;;;;;;13.20;7.82;;;;;;;6.62;100.00;100319.31;5030493;28;20029;-73
2023/01/16 09:34:02;;;;;;;13.23;9.52;;;;;;;6.62;100.00;100314.19;5031145;28;20025;-73
2023/01/16 09:36:28;;;;;;;13.98;10.13;;;;;;;6.28;100.00;100230.41;5029855;28;20602;-73
2023/01/16 09:38:53;;;;;;;14.68;10.48;;;;;;;6.70;100.00;100279.50;5016683;28;20032;-72
2023/01/16 09:44:08;;;;;;;13.98;8.95;;;;;;;6.86;100.00;100288.84;5030673;28;20457;-71
2023/01/16 09:46:40;;;;;;;13.32;9.18;;;;;;;6.84;100.00;100272.50;5030680;28;20037;-71
2023/01/16 09:49:29;;;;;;;14.20;9.18;;;;;;;6.88;100.00;100279.53;5030701;28;20427;-73
2023/01/16 10:00:26;;;;;;;13.07;9.75;;;;;;;6.80;100.00;100253.53;5018393;28;20040;-74
2023/01/16 10:02:52;;;;;;;15.00;9.68;;;;;;;6.91;100.00;100268.53;5030080;28;20072;-72
2023/01/16 10:05:17;;;;;;;17.00;9.32;;;;;;;6.71;100.00;100232.53;5030837;28;20112;-72
2023/01/16 10:08:05;;;;;;;13.15;8.93;;;;;;;6.26;100.00;100150.00;5030196;28;20032;-72
2023/01/16 10:10:42;;;;;;;16.45;9.77;;;;;;;6.92;100.00;100254.91;5022927;28;20076;-73
2023/01/16 10:13:42;;;;;;;19.23;11.13;;;;;;;6.95;100.00;100247.34;5041752;28;20056;-74
2023/01/16 10:16:30;;;;;;;16.67;11.80;;;;;;;7.03;100.00;100238.34;5046716;28;20028;-74
2023/01/16 10:19:07;;;;;;;18.00;11.10;;;;;;;7.12;100.00;100232.75;5028762;28;20574;-74
2023/01/16 10:22:00;;;;;;;15.27;9.18;;;;;;;7.11;100.00;100226.72;5025820;28;20033;-73
2023/01/16 10:24:47;;;;;;;14.13;9.85;;;;;;;6.71;100.00;100170.09;5046872;28;20023;-72
2023/01/16 10:27:38;;;;;;;15.82;11.15;;;;;;;7.03;100.00;100222.94;5049389;28;20036;-75
2023/01/16 10:30:13;;;;;;;17.20;10.65;;;;;;;7.00;100.00;100206.50;4993980;28;20046;-74
2023/01/16 10:32:44;;;;;;;16.50;10.00;;;;;;;7.14;100.00;100205.47;4988953;28;20081;-74
2023/01/16 10:35:12;;;;;;;14.90;11.20;;;;;;;7.19;100.00;100203.09;4988666;28;20050;-74
2023/01/16 10:37:40;;;;;;;16.52;10.02;;;;;;;7.21;100.00;100215.19;4988943;28;20522;-73
2023/01/16 10:40:19;;;;;;;15.90;10.13;;;;;;;7.00;100.00;100168.00;4988866;28;20030;-74
2023/01/16 10:51:10;;;;;;;15.65;10.73;;;;;;;7.34;100.00;100190.09;4989099;28;20551;-74
2023/01/16 10:53:37;;;;;;;15.35;10.30;;;;;;;6.90;100.00;100088.03;4988818;28;20054;-74
2023/01/16 10:56:03;;;;;;;16.90;11.25;;;;;;;7.34;100.00;100159.28;4988722;28;20456;-74
2023/01/16 10:58:36;;;;;;;15.15;11.90;;;;;;;7.35;100.00;100150.75;4972316;28;20062;-74
2023/01/16 11:01:06;;;;;;;15.38;11.25;;;;;;;7.52;100.00;100167.78;4989019;28;20134;-73
2023/01/16 11:03:38;;;;;;;14.93;11.30;;;;;;;7.59;100.00;100158.69;4988746;28;20045;-74
2023/01/16 11:06:17;;;;;;;14.10;11.23;;;;;;;7.65;100.00;100147.78;4992949;28;20471;-73
2023/01/16 11:08:44;;;;;;;17.48;11.73;;;;;;;7.67;100.00;100151.31;5028236;28;20049;-74
2023/01/16 11:19:44;;;;;;;15.20;10.60;;;;;;;7.82;100.00;100092.00;5030563;28;20619;-73
2023/01/16 11:22:25;;;;;;;18.85;12.52;;;;;;;8.01;100.00;100122.78;5030390;28;20076;-71
2023/01/16 11:25:00;;;;;;;51.55;39.42;;;;;;;8.00;100.00;100121.03;5030180;28;20033;-73
2023/01/16 11:27:31;;;;;;;17.42;12.93;;;;;;;7.83;100.00;100128.03;5030224;28;20398;-73
2023/01/16 11:29:57;;;;;;;77.88;38.17;;;;;;;7.82;100.00;100118.56;5030401;28;20052;-74
2023/01/16 11:32:27;;;;;;;34.42;24.73;;;;;;;7.84;100.00;100113.47;5030313;28;20789;-73
2023/01/16 11:34:56;;;;;;;31.73;24.40;;;;;;;7.89;100.00;100102.56;5030723;28;20032;-75
2023/01/16 11:37:24;;;;;;;23.70;17.52;;;;;;;7.60;100.00;100039.69;5030363;28;20021;-74
2023/01/16 11:39:53;;;;;;;22.50;14.20;;;;;;;7.86;100.00;100097.31;5030315;28;20032;-74
2023/01/16 11:48:23;;;;;;;16.77;11.23;;;;;;;7.65;100.00;100069.03;5051454;28;20044;-75
2023/01/16 11:50:57;;;;;;;15.48;9.88;;;;;;;7.56;100.00;100095.22;5051058;28;20041;-74
2023/01/16 11:53:28;;;;;;;18.85;11.57;;;;;;;7.69;100.00;100088.00;5051145;28;20044;-74
2023/01/16 11:56:26;;;;;;;15.38;10.13;;;;;;;7.13;100.00;100012.03;5051147;28;20711;-73
2023/01/16 11:59:28;;;;;;;18.70;10.40;;;;;;;7.22;100.00;100026.97;5051017;28;20475;-74
2023/01/16 12:02:22;;;;;;;19.40;11.70;;;;;;;6.93;100.00;100011.19;5051127;28;20037;-74
2023/01/16 12:08:02;;;;;;;17.52;11.00;;;;;;;7.36;100.00;100088.31;5050974;28;20563;-73
2023/01/16 12:10:38;;;;;;;17.15;11.75;;;;;;;7.37;100.00;100072.97;5050869;28;20553;-74
2023/01/16 12:16:12;;;;;;;15.90;11.10;;;;;;;7.33;100.00;100068.53;5051067;28;20081;-74
2023/01/16 12:19:16;;;;;;;21.85;11.90;;;;;;;7.24;100.00;100063.88;5051031;28;20555;-73
2023/01/16 12:21:45;;;;;;;18.85;12.38;;;;;;;7.05;100.00;100041.66;4955437;28;20045;-74
2023/01/16 12:24:33;;;;;;;18.10;12.63;;;;;;;7.24;100.00;100050.13;4966740;28;20055;-74
2023/01/16 12:27:39;;;;;;;17.15;12.18;;;;;;;7.19;100.00;100057.66;4952573;29;20534;-74
2023/01/16 12:30:23;;;;;;;19.50;12.30;;;;;;;7.22;100.00;100054.34;4952494;29;20146;-74